Time;durP1;ratioP1;P1;durP2;ratioP2;P2;SDS_P1;SDS_P2;PMS_P1;PMS_P2;Temp;Humidity;BMP_temperature;BMP_pressure;BME280_temperature;BME280_humidity;BME280_pressure;Samples;Min_cycle;Max_cycle;Signal;HPM_P1;HPM_P2
2022/04/19 00:00:29;;;;;;;;;;;;;;;1.73;57.93;98203.29;108053;1279;25951;-71
2022/04/19 00:02:56;;;;;;;;;;;;;;;1.75;57.62;98201.69;108040;1276;22535;-71
2022/04/19 00:05:22;;;;;;;;;;;;;;;1.78;57.10;98196.11;108070;1279;22751;-71
2022/04/19 00:07:49;;;;;;;;;;;;;;;1.80;56.90;98193.95;108039;1279;22544;-71
2022/04/19 00:10:16;;;;;;;;;;;;;;;1.81;56.83;98192.88;108072;1279;25256;-71
2022/04/19 00:12:43;;;;;;;;;;;;;;;1.81;56.66;98191.31;108060;1279;22525;-71
2022/04/19 00:15:10;;;;;;;;;;;;;;;1.80;56.76;98191.52;108040;1279;25507;-72
2022/04/19 00:17:37;;;;;;;;;;;;;;;1.79;56.46;98188.34;108048;1279;22508;-72
2022/04/19 00:20:04;;;;;;;;;;;;;;;1.77;56.74;98191.16;108044;1279;22533;-71
2022/04/19 00:22:31;;;;;;;;;;;;;;;1.74;56.54;98188.48;108051;1279;22751;-71
2022/04/19 00:24:58;;;;;;;;;;;;;;;1.73;56.65;98186.15;108063;1279;24394;-72
2022/04/19 00:27:25;;;;;;;;;;;;;;;1.70;56.57;98181.44;108056;1279;24430;-71
2022/04/19 00:29:53;;;;;;;;;;;;;;;1.68;56.67;98177.08;108029;1279;22524;-71
2022/04/19 00:32:20;;;;;;;;;;;;;;;1.65;56.59;98176.67;108110;1279;22694;-71
2022/04/19 00:34:47;;;;;;;;;;;;;;;1.65;56.76;98172.36;108032;1279;22599;-71
2022/04/19 00:37:14;;;;;;;;;;;;;;;1.67;57.49;98169.39;108058;1279;23103;-72
2022/04/19 00:39:41;;;;;;;;;;;;;;;1.69;58.69;98169.30;108058;1279;22713;-71
2022/04/19 00:42:08;;;;;;;;;;;;;;;1.68;59.38;98164.38;108020;1279;22540;-71
2022/04/19 00:44:37;;;;;;;;;;;;;;;1.65;59.40;98165.14;108044;1279;24111;-71
2022/04/19 00:47:09;;;;;;;;;;;;;;;1.64;59.48;98162.09;108029;1279;24369;-71
2022/04/19 00:49:37;;;;;;;;;;;;;;;1.64;59.00;98160.03;108075;1279;22593;-71
2022/04/19 00:52:05;;;;;;;;;;;;;;;1.63;58.51;98155.60;108083;1279;25468;-71
2022/04/19 00:54:32;;;;;;;;;;;;;;;1.62;58.57;98153.59;108094;1279;22617;-71
2022/04/19 00:56:59;;;;;;;;;;;;;;;1.60;58.48;98147.69;108056;1279;23873;-71
2022/04/19 00:59:26;;;;;;;;;;;;;;;1.57;58.29;98150.35;108053;1279;22575;-71
2022/04/19 01:01:53;;;;;;;;;;;;;;;1.55;59.02;98149.41;108073;1279;22512;-71
2022/04/19 01:04:20;;;;;;;;;;;;;;;1.53;59.69;98150.17;108056;1279;22597;-72
2022/04/19 01:06:47;;;;;;;;;;;;;;;1.53;58.86;98142.92;108058;1279;22525;-71
2022/04/19 01:09:14;;;;;;;;;;;;;;;1.55;58.58;98144.08;108022;1279;24409;-72
2022/04/19 01:14:27;;;;;;;;;;;;;;;1.54;59.24;98144.60;108083;1279;22741;-71
2022/04/19 01:16:54;;;;;;;;;;;;;;;1.54;59.51;98145.13;108062;1279;22597;-71
2022/04/19 01:19:21;;;;;;;;;;;;;;;1.54;58.74;98142.55;108046;1279;22656;-71
2022/04/19 01:21:49;;;;;;;;;;;;;;;1.54;59.25;98138.63;108071;1279;22546;-71
2022/04/19 01:24:18;;;;;;;;;;;;;;;1.53;60.07;98137.10;108042;1279;22555;-71
2022/04/19 01:26:45;;;;;;;;;;;;;;;1.54;59.18;98134.51;108059;1279;22607;-71
2022/04/19 01:29:13;;;;;;;;;;;;;;;1.54;59.51;98132.77;108298;1279;22547;-72
2022/04/19 01:31:41;;;;;;;;;;;;;;;1.54;58.95;98131.73;108325;1279;22534;-72
2022/04/19 01:34:08;;;;;;;;;;;;;;;1.54;58.68;98126.43;108357;1279;22521;-71
2022/04/19 01:36:35;;;;;;;;;;;;;;;1.53;58.72;98130.56;108343;1279;22538;-71
2022/04/19 01:39:06;;;;;;;;;;;;;;;1.54;58.59;98129.88;108325;1276;22603;-72
2022/04/19 01:41:33;;;;;;;;;;;;;;;1.57;58.61;98132.00;108337;1279;22525;-72
2022/04/19 01:44:00;;;;;;;;;;;;;;;1.59;59.17;98125.23;108339;1279;24424;-72
2022/04/19 01:46:27;;;;;;;;;;;;;;;1.62;60.51;98127.32;108369;1279;24406;-72
2022/04/19 01:48:57;;;;;;;;;;;;;;;1.63;60.77;98124.70;108332;1279;22598;-78
2022/04/19 01:51:25;;;;;;;;;;;;;;;1.64;60.69;98118.33;108318;1279;25225;-72
2022/04/19 01:53:52;;;;;;;;;;;;;;;1.66;60.46;98121.51;108316;1279;22536;-73
2022/04/19 01:56:18;;;;;;;;;;;;;;;1.67;60.18;98116.51;108321;1279;22548;-72
2022/04/19 01:58:45;;;;;;;;;;;;;;;1.66;60.91;98112.77;107987;1279;468625;-72
2022/04/19 02:01:12;;;;;;;;;;;;;;;1.67;60.32;98106.40;108361;1279;22603;-73
2022/04/19 02:03:39;;;;;;;;;;;;;;;1.64;60.20;98103.55;108093;1279;23226;-72
2022/04/19 02:06:11;;;;;;;;;;;;;;;1.63;60.56;98103.61;108049;1279;22662;-73
2022/04/19 02:08:38;;;;;;;;;;;;;;;1.63;60.37;98104.80;108068;1279;22605;-73
2022/04/19 02:11:05;;;;;;;;;;;;;;;1.64;60.14;98100.31;108063;1278;24483;-72
2022/04/19 02:13:32;;;;;;;;;;;;;;;1.64;60.20;98098.95;108039;1279;22600;-72
2022/04/19 02:15:59;;;;;;;;;;;;;;;1.63;61.02;98094.84;108045;1279;23092;-72
2022/04/19 02:18:26;;;;;;;;;;;;;;;1.63;60.08;98096.03;108058;1279;22575;-72
2022/04/19 02:20:53;;;;;;;;;;;;;;;1.64;60.76;98091.74;108053;1279;23031;-73
2022/04/19 02:23:20;;;;;;;;;;;;;;;1.64;60.30;98087.27;108080;1279;22695;-72
2022/04/19 02:25:51;;;;;;;;;;;;;;;1.64;59.96;98084.69;108064;1279;22547;-73
2022/04/19 02:28:17;;;;;;;;;;;;;;;1.64;60.05;98080.73;108038;1279;24085;-72
2022/04/19 02:30:46;;;;;;;;;;;;;;;1.64;60.45;98076.80;108048;1279;22519;-72
2022/04/19 02:33:12;;;;;;;;;;;;;;;1.63;60.16;98077.68;108067;1279;22669;-72
2022/04/19 02:35:40;;;;;;;;;;;;;;;1.64;61.20;98072.51;108133;1279;22581;-72
2022/04/19 02:38:07;;;;;;;;;;;;;;;1.70;59.95;98068.83;108052;1279;22697;-72
2022/04/19 02:40:34;;;;;;;;;;;;;;;1.76;60.39;98067.77;108039;1279;22538;-72
2022/04/19 02:43:01;;;;;;;;;;;;;;;1.80;61.75;98065.02;108023;1279;24451;-72
2022/04/19 02:45:27;;;;;;;;;;;;;;;1.81;63.27;98067.04;108080;1279;24201;-72
2022/04/19 02:48:04;;;;;;;;;;;;;;;1.77;63.23;98072.67;108073;1279;22521;-72
2022/04/19 02:50:33;;;;;;;;;;;;;;;1.71;63.04;98071.02;108057;1279;25284;-72
2022/04/19 02:53:01;;;;;;;;;;;;;;;1.67;62.68;98072.58;108041;1279;22607;-72
2022/04/19 02:55:28;;;;;;;;;;;;;;;1.63;62.70;98068.24;108071;1279;24749;-72
2022/04/19 02:57:55;;;;;;;;;;;;;;;1.60;62.73;98065.09;108056;1279;22555;-72
2022/04/19 03:00:22;;;;;;;;;;;;;;;1.59;62.89;98070.47;108096;1278;22534;-72
2022/04/19 03:02:49;;;;;;;;;;;;;;;1.61;62.49;98071.42;108042;1279;23517;-72
2022/04/19 03:05:20;;;;;;;;;;;;;;;1.61;62.71;98082.05;108133;1279;22537;-72
2022/04/19 03:07:47;;;;;;;;;;;;;;;1.60;63.90;98094.45;108065;1279;22576;-72
2022/04/19 03:10:15;;;;;;;;;;;;;;;1.63;62.85;98089.38;108058;1279;25348;-72
2022/04/19 03:12:43;;;;;;;;;;;;;;;1.67;62.34;98082.38;108086;1279;23205;-72
2022/04/19 03:15:11;;;;;;;;;;;;;;;1.72;62.90;98081.29;108054;1279;23142;-72
2022/04/19 03:17:40;;;;;;;;;;;;;;;1.77;63.32;98094.17;108027;1279;22560;-72
2022/04/19 03:20:11;;;;;;;;;;;;;;;1.79;63.59;98088.40;108017;1279;22525;-71
2022/04/19 03:28:09;;;;;;;;;;;;;;;1.92;61.70;98078.13;108035;1279;22729;-72
2022/04/19 03:30:37;;;;;;;;;;;;;;;1.96;62.32;98085.89;108051;1279;22634;-72
2022/04/19 03:33:04;;;;;;;;;;;;;;;1.98;62.47;98086.10;108060;1279;22702;-72
2022/04/19 03:35:31;;;;;;;;;;;;;;;2.00;62.43;98090.51;108056;1279;23123;-72
2022/04/19 03:37:57;;;;;;;;;;;;;;;2.02;62.26;98088.36;108084;1279;23281;-72
2022/04/19 03:40:25;;;;;;;;;;;;;;;2.05;62.14;98086.36;108044;1279;22536;-72
2022/04/19 03:42:54;;;;;;;;;;;;;;;2.08;61.59;98084.67;108064;1279;25514;-72
2022/04/19 03:45:21;;;;;;;;;;;;;;;2.10;61.56;98085.13;108070;1279;22746;-72
2022/04/19 03:47:49;;;;;;;;;;;;;;;2.11;61.50;98083.39;108048;1279;22981;-72
2022/04/19 03:50:16;;;;;;;;;;;;;;;2.12;61.85;98084.03;108063;1277;23651;-72
2022/04/19 03:52:44;;;;;;;;;;;;;;;2.15;61.50;98084.03;108092;1279;22672;-72
2022/04/19 03:55:11;;;;;;;;;;;;;;;2.21;61.96;98079.55;108060;1279;22702;-72
2022/04/19 03:57:38;;;;;;;;;;;;;;;2.25;62.30;98080.37;108003;1279;23257;-72
2022/04/19 04:00:06;;;;;;;;;;;;;;;2.32;63.10;98080.98;108029;1279;25549;-72
2022/04/19 04:02:34;;;;;;;;;;;;;;;2.36;63.54;98084.73;108075;1279;22533;-73
2022/04/19 04:05:00;;;;;;;;;;;;;;;2.41;63.14;98086.63;108054;1279;22533;-73
2022/04/19 04:07:27;;;;;;;;;;;;;;;2.45;62.96;98085.58;108036;1279;23091;-72
2022/04/19 04:09:54;;;;;;;;;;;;;;;2.46;63.19;98087.80;108049;1277;22534;-73
2022/04/19 04:12:22;;;;;;;;;;;;;;;2.47;62.96;98085.35;108094;1279;22519;-72
2022/04/19 04:14:48;;;;;;;;;;;;;;;2.50;62.72;98088.49;108085;1279;22516;-72
2022/04/19 04:17:18;;;;;;;;;;;;;;;2.52;62.83;98092.34;108050;1279;22549;-72
2022/04/19 04:19:45;;;;;;;;;;;;;;;2.50;63.01;98094.02;108039;1279;22673;-73
2022/04/19 04:22:11;;;;;;;;;;;;;;;2.49;63.13;98092.13;108050;1279;22644;-73
2022/04/19 04:24:38;;;;;;;;;;;;;;;2.54;63.28;98095.00;108052;1279;22689;-72
2022/04/19 04:27:05;;;;;;;;;;;;;;;2.56;64.44;98100.59;108046;1279;23091;-72
2022/04/19 04:29:32;;;;;;;;;;;;;;;2.56;64.75;98100.96;108043;1278;22628;-73
2022/04/19 04:31:59;;;;;;;;;;;;;;;2.57;64.75;98100.38;108051;1279;22621;-72
2022/04/19 04:34:26;;;;;;;;;;;;;;;2.60;64.48;98097.14;108058;1279;22567;-72
2022/04/19 04:36:53;;;;;;;;;;;;;;;2.65;64.16;98102.83;108049;1279;25369;-73
2022/04/19 04:39:20;;;;;;;;;;;;;;;2.68;64.21;98098.74;108072;1279;22540;-73
2022/04/19 04:41:46;;;;;;;;;;;;;;;2.73;63.59;98100.61;108078;1279;22687;-72
2022/04/19 04:44:14;;;;;;;;;;;;;;;2.79;63.42;98099.32;108086;1279;24425;-72
2022/04/19 04:49:41;;;;;;;;;;;;;;;2.92;63.18;98099.26;108050;1279;22547;-72
2022/04/19 04:52:10;;;;;;;;;;;;;;;3.01;62.77;98096.98;108059;1279;22675;-72
2022/04/19 04:54:38;;;;;;;;;;;;;;;3.10;62.60;98096.41;108065;1279;22566;-72
2022/04/19 04:57:05;;;;;;;;;;;;;;;3.19;62.31;98098.77;108052;1279;22515;-72
2022/04/19 04:59:33;;;;;;;;;;;;;;;3.28;62.24;98098.02;108053;1279;22598;-72
2022/04/19 05:02:00;;;;;;;;;;;;;;;3.40;62.04;98095.75;108029;1279;22540;-72
2022/04/19 05:04:27;;;;;;;;;;;;;;;3.50;61.89;98094.45;108088;1279;25443;-72
2022/04/19 05:06:54;;;;;;;;;;;;;;;3.60;61.66;98094.70;108070;1279;25355;-73
2022/04/19 05:09:21;;;;;;;;;;;;;;;3.69;61.58;98092.05;108065;1279;22604;-72
2022/04/19 05:11:50;;;;;;;;;;;;;;;3.80;61.51;98091.86;108089;1279;22558;-74
2022/04/19 05:14:17;;;;;;;;;;;;;;;3.91;61.28;98090.81;108060;1279;25482;-72
2022/04/19 05:16:44;;;;;;;;;;;;;;;4.02;61.35;98093.07;108089;1279;22687;-72
2022/04/19 05:19:11;;;;;;;;;;;;;;;4.12;61.16;98091.73;108090;1279;22540;-72
2022/04/19 05:21:39;;;;;;;;;;;;;;;4.21;61.35;98090.97;108073;1279;23176;-72
2022/04/19 05:24:07;;;;;;;;;;;;;;;4.29;61.45;98094.00;108062;1279;23096;-72
2022/04/19 05:26:34;;;;;;;;;;;;;;;4.37;61.65;98090.85;108064;1279;25347;-73
2022/04/19 05:29:02;;;;;;;;;;;;;;;4.46;61.24;98094.36;108090;1279;22619;-73
2022/04/19 05:31:29;;;;;;;;;;;;;;;4.56;61.22;98094.58;107985;1279;23091;-72
2022/04/19 05:33:56;;;;;;;;;;;;;;;4.64;61.23;98093.64;108035;1279;22600;-72
2022/04/19 05:36:23;;;;;;;;;;;;;;;4.73;61.32;98089.96;108063;1279;23458;-73
2022/04/19 05:38:52;;;;;;;;;;;;;;;4.82;61.41;98090.36;108048;1279;22525;-72
2022/04/19 05:41:20;;;;;;;;;;;;;;;4.92;61.23;98089.64;108081;1279;23021;-73
2022/04/19 05:43:48;;;;;;;;;;;;;;;4.99;61.26;98091.90;108048;1279;25519;-72
2022/04/19 05:46:17;;;;;;;;;;;;;;;5.04;61.36;98093.02;108058;1279;23077;-73
2022/04/19 05:48:44;;;;;;;;;;;;;;;5.09;61.47;98093.27;108027;1279;22537;-71
2022/04/19 05:51:11;;;;;;;;;;;;;;;5.15;61.53;98090.89;108055;1278;22532;-73
2022/04/19 05:53:38;;;;;;;;;;;;;;;5.16;61.57;98096.02;108075;1279;22542;-73
2022/04/19 05:56:06;;;;;;;;;;;;;;;5.19;61.64;98093.96;108049;1279;22548;-73
2022/04/19 05:58:32;;;;;;;;;;;;;;;5.24;61.77;98094.41;108074;1279;22703;-73
2022/04/19 06:01:01;;;;;;;;;;;;;;;5.32;62.22;98089.15;108032;1279;23980;-73
2022/04/19 06:06:14;;;;;;;;;;;;;;;5.55;61.58;98091.38;108067;1279;22686;-72
2022/04/19 06:08:44;;;;;;;;;;;;;;;5.68;61.78;98087.37;108080;1279;24229;-72
2022/04/19 06:11:12;;;;;;;;;;;;;;;5.81;62.05;98084.77;108035;1279;22525;-72
2022/04/19 06:13:40;;;;;;;;;;;;;;;5.95;63.21;98087.45;108058;1279;22548;-73
2022/04/19 06:16:08;;;;;;;;;;;;;;;6.06;63.82;98083.95;108010;1279;22562;-72
2022/04/19 06:18:35;;;;;;;;;;;;;;;6.15;63.34;98084.30;108090;1279;22530;-72
2022/04/19 06:21:04;;;;;;;;;;;;;;;6.17;62.80;98087.12;108046;1279;22626;-73
2022/04/19 06:23:31;;;;;;;;;;;;;;;6.19;62.56;98086.13;108049;1279;22582;-71
2022/04/19 06:25:59;;;;;;;;;;;;;;;6.30;62.04;98085.02;108036;1279;22558;-73
2022/04/19 06:28:26;;;;;;;;;;;;;;;6.35;61.93;98091.48;108037;1279;22519;-72
2022/04/19 06:30:52;;;;;;;;;;;;;;;6.35;61.77;98089.87;108047;1279;22841;-73
2022/04/19 06:33:19;;;;;;;;;;;;;;;6.48;61.61;98094.52;108078;1279;22528;-73
2022/04/19 06:35:47;;;;;;;;;;;;;;;6.59;61.26;98093.22;108062;1279;22685;-73
2022/04/19 06:38:14;;;;;;;;;;;;;;;6.70;60.81;98099.11;108019;1279;23965;-73
2022/04/19 06:40:41;;;;;;;;;;;;;;;6.82;60.65;98093.23;108024;1279;22694;-72
2022/04/19 06:43:08;;;;;;;;;;;;;;;6.93;60.34;98093.66;108044;1279;22552;-73
2022/04/19 06:45:35;;;;;;;;;;;;;;;7.10;60.33;98094.69;108083;1279;25508;-71
2022/04/19 06:48:02;;;;;;;;;;;;;;;7.16;59.90;98092.10;108035;1279;22564;-72
2022/04/19 06:50:29;;;;;;;;;;;;;;;7.25;59.81;98090.35;108017;1279;22590;-71
2022/04/19 06:52:56;;;;;;;;;;;;;;;7.41;59.82;98081.91;108058;1279;22507;-72
2022/04/19 06:55:23;;;;;;;;;;;;;;;7.57;59.23;98084.08;108050;1278;22704;-71
2022/04/19 06:57:50;;;;;;;;;;;;;;;7.69;59.05;98081.42;108071;1279;24554;-72
2022/04/19 07:00:17;;;;;;;;;;;;;;;7.84;58.66;98084.27;108078;1279;22556;-72
2022/04/19 07:02:44;;;;;;;;;;;;;;;8.02;58.62;98083.30;108035;1279;22691;-73
2022/04/19 07:05:12;;;;;;;;;;;;;;;8.27;58.45;98084.95;108042;1279;25395;-75
2022/04/19 07:07:41;;;;;;;;;;;;;;;8.41;57.95;98085.33;108077;1279;22726;-72
2022/04/19 07:10:10;;;;;;;;;;;;;;;8.43;57.60;98084.86;108087;1279;22560;-72
2022/04/19 07:12:37;;;;;;;;;;;;;;;8.46;57.60;98083.77;108049;1279;24300;-75
2022/04/19 07:15:05;;;;;;;;;;;;;;;8.43;57.39;98082.75;108058;1279;22532;-72
2022/04/19 07:17:32;;;;;;;;;;;;;;;8.36;57.15;98086.52;108047;1279;23023;-72
2022/04/19 07:28:15;;;;;;;;;;;;;;;8.01;56.80;98087.73;108050;1279;22541;-71
2022/04/19 07:30:43;;;;;;;;;;;;;;;7.98;56.57;98088.77;108064;1279;22678;-72
2022/04/19 07:33:10;;;;;;;;;;;;;;;7.97;56.47;98090.23;108079;1279;22544;-74
2022/04/19 07:35:37;;;;;;;;;;;;;;;8.00;56.54;98089.33;108075;1279;22693;-72
2022/04/19 07:38:04;;;;;;;;;;;;;;;8.09;56.59;98088.21;108088;1279;22671;-72
2022/04/19 07:40:31;;;;;;;;;;;;;;;8.17;56.26;98087.35;108019;1279;22516;-74
2022/04/19 07:42:58;;;;;;;;;;;;;;;8.27;56.27;98086.73;108062;1279;22521;-73
2022/04/19 07:45:24;;;;;;;;;;;;;;;8.38;55.63;98086.41;108064;1279;24340;-74
2022/04/19 07:47:51;;;;;;;;;;;;;;;8.42;55.71;98084.41;108083;1279;22537;-75
2022/04/19 07:50:18;;;;;;;;;;;;;;;8.60;55.40;98083.38;108039;1278;22548;-75
2022/04/19 07:52:45;;;;;;;;;;;;;;;8.82;54.64;98083.10;108051;1279;23355;-74
2022/04/19 07:55:13;;;;;;;;;;;;;;;9.09;54.53;98081.66;108060;1279;23397;-79
2022/04/19 07:57:39;;;;;;;;;;;;;;;9.19;54.15;98086.55;108109;1279;22541;-74
2022/04/19 08:00:07;;;;;;;;;;;;;;;9.36;54.06;98081.33;108095;1279;22866;-75
2022/04/19 08:02:34;;;;;;;;;;;;;;;9.61;54.30;98087.11;108035;1279;22553;-74
2022/04/19 08:05:00;;;;;;;;;;;;;;;9.63;53.86;98084.66;108045;1279;24926;-74
2022/04/19 08:07:27;;;;;;;;;;;;;;;9.72;53.64;98083.52;108050;1279;23146;-74
2022/04/19 08:09:58;;;;;;;;;;;;;;;9.82;52.88;98086.29;108058;1279;23008;-75
2022/04/19 08:12:25;;;;;;;;;;;;;;;9.82;53.00;98088.54;108078;1279;22679;-79
2022/04/19 08:14:52;;;;;;;;;;;;;;;9.87;52.53;98092.22;107983;1279;22686;-73
2022/04/19 08:17:19;;;;;;;;;;;;;;;9.91;52.39;98090.04;108076;1279;22523;-73
2022/04/19 08:19:46;;;;;;;;;;;;;;;10.04;52.22;98091.70;108054;1279;22539;-72
2022/04/19 08:22:13;;;;;;;;;;;;;;;10.10;52.14;98091.62;108051;1279;22639;-72
2022/04/19 08:24:40;;;;;;;;;;;;;;;10.24;51.93;98094.63;108012;1279;22578;-74
2022/04/19 08:27:07;;;;;;;;;;;;;;;10.39;51.80;98094.59;108019;1279;22595;-73
2022/04/19 08:29:34;;;;;;;;;;;;;;;10.48;51.05;98094.26;108039;1279;23232;-73
2022/04/19 08:32:00;;;;;;;;;;;;;;;10.40;50.62;98093.63;108044;1279;22686;-74
2022/04/19 08:34:27;;;;;;;;;;;;;;;10.40;50.14;98094.83;108067;1279;24115;-73
2022/04/19 08:36:54;;;;;;;;;;;;;;;10.33;50.45;98098.49;108035;1279;22644;-74
2022/04/19 08:39:21;;;;;;;;;;;;;;;10.35;50.69;98102.02;108009;1279;22512;-73
2022/04/19 08:41:49;;;;;;;;;;;;;;;10.34;50.47;98103.48;108037;1279;22672;-73
2022/04/19 08:44:15;;;;;;;;;;;;;;;10.27;50.35;98103.11;108067;1279;22616;-73
2022/04/19 08:46:43;;;;;;;;;;;;;;;10.16;49.99;98103.70;108064;1279;22523;-76
2022/04/19 08:49:10;;;;;;;;;;;;;;;10.10;49.65;98103.06;108037;1279;25240;-73
2022/04/19 08:51:38;;;;;;;;;;;;;;;10.07;50.17;98105.08;108027;1279;23047;-74
2022/04/19 08:59:41;;;;;;;;;;;;;;;9.55;50.34;98118.30;108054;1279;22530;-73
2022/04/19 09:02:18;;;;;;;;;;;;;;;9.43;50.62;98125.02;108068;1279;25301;-76
2022/04/19 09:04:44;;;;;;;;;;;;;;;9.25;50.81;98123.12;108080;1279;22696;-73
2022/04/19 09:07:11;;;;;;;;;;;;;;;9.10;50.85;98128.86;108044;1279;22616;-71
2022/04/19 09:09:38;;;;;;;;;;;;;;;8.90;50.57;98130.02;108045;1279;22607;-72
2022/04/19 09:12:10;;;;;;;;;;;;;;;8.81;51.03;98132.84;108066;1279;22521;-74
2022/04/19 09:14:54;;;;;;;;;;;;;;;8.78;51.05;98135.30;108223;1279;22516;-72
2022/04/19 09:17:42;;;;;;;;;;;;;;;8.72;50.61;98142.13;108243;1279;22541;-72
2022/04/19 09:20:15;;;;;;;;;;;;;;;8.75;50.94;98141.96;108226;1279;22517;-72
2022/04/19 09:22:42;;;;;;;;;;;;;;;8.85;50.89;98143.00;108227;1279;22992;-72
2022/04/19 09:25:14;;;;;;;;;;;;;;;8.83;50.68;98144.38;108372;1279;22533;-78
2022/04/19 09:27:45;;;;;;;;;;;;;;;8.90;51.16;98142.83;108394;1279;22531;-74
2022/04/19 09:30:15;;;;;;;;;;;;;;;8.94;50.41;98146.39;108316;1279;24595;-72
2022/04/19 09:32:58;;;;;;;;;;;;;;;8.94;51.10;98145.23;108335;1279;22598;-74
2022/04/19 09:35:33;;;;;;;;;;;;;;;8.92;50.87;98149.66;108337;1279;22531;-74
2022/04/19 09:37:59;;;;;;;;;;;;;;;8.89;50.62;98152.95;108338;1279;22661;-74
2022/04/19 09:40:27;;;;;;;;;;;;;;;8.94;50.70;98154.88;108352;1279;22520;-74
2022/04/19 09:42:57;;;;;;;;;;;;;;;8.98;50.78;98157.23;108375;1279;22512;-72
2022/04/19 09:45:28;;;;;;;;;;;;;;;9.05;51.13;98154.84;108353;1279;22601;-72
2022/04/19 09:47:55;;;;;;;;;;;;;;;9.19;50.77;98153.80;108348;1279;22619;-78
2022/04/19 09:50:22;;;;;;;;;;;;;;;9.31;50.50;98156.40;108349;1279;23601;-72
2022/04/19 09:52:50;;;;;;;;;;;;;;;9.49;50.61;98158.33;108323;1279;22552;-74
2022/04/19 09:55:18;;;;;;;;;;;;;;;9.68;50.49;98159.30;108330;1279;22692;-78
2022/04/19 09:57:48;;;;;;;;;;;;;;;9.88;50.28;98158.05;108334;1279;22544;-78
2022/04/19 10:00:17;;;;;;;;;;;;;;;10.14;50.26;98159.55;108344;1279;22606;-73
2022/04/19 10:08:23;;;;;;;;;;;;;;;10.48;49.25;98163.52;108048;1279;22534;-74
2022/04/19 10:10:51;;;;;;;;;;;;;;;10.52;49.31;98165.21;108026;1279;24056;-73
2022/04/19 10:13:20;;;;;;;;;;;;;;;10.56;49.42;98165.60;108041;1279;22683;-73
2022/04/19 10:15:47;;;;;;;;;;;;;;;10.60;49.19;98171.58;108060;1279;22566;-73
2022/04/19 10:18:13;;;;;;;;;;;;;;;10.43;49.07;98169.13;108031;1279;22701;-74
2022/04/19 10:20:46;;;;;;;;;;;;;;;10.39;49.38;98169.61;108062;1279;23270;-74
2022/04/19 10:23:15;;;;;;;;;;;;;;;10.47;49.27;98166.06;108040;1279;22523;-74
2022/04/19 10:25:46;;;;;;;;;;;;;;;10.53;48.72;98167.39;108045;1279;22632;-76
2022/04/19 10:28:15;;;;;;;;;;;;;;;10.59;47.28;98172.30;108048;1279;22520;-75
2022/04/19 10:30:52;;;;;;;;;;;;;;;10.82;47.96;98173.20;108219;1279;22521;-74
2022/04/19 10:33:42;;;;;;;;;;;;;;;11.15;48.17;98177.55;108048;1279;22553;-74
2022/04/19 10:36:10;;;;;;;;;;;;;;;11.57;48.19;98175.83;107938;1279;22577;-75
2022/04/19 10:38:37;;;;;;;;;;;;;;;11.92;47.82;98178.73;108057;1279;22568;-74
2022/04/19 10:41:04;;;;;;;;;;;;;;;12.11;46.59;98175.80;107982;1279;22614;-73
2022/04/19 10:43:31;;;;;;;;;;;;;;;12.14;46.79;98175.75;108030;1279;22544;-73
2022/04/19 10:46:16;;;;;;;;;;;;;;;12.16;46.22;98179.58;108073;1279;22632;-73
2022/04/19 10:49:02;;;;;;;;;;;;;;;11.96;46.11;98177.50;108044;1279;26069;-74
2022/04/19 10:51:29;;;;;;;;;;;;;;;11.81;46.20;98177.96;107992;1279;22549;-73
2022/04/19 10:53:56;;;;;;;;;;;;;;;11.65;45.66;98179.70;108005;1279;22521;-73
2022/04/19 10:56:23;;;;;;;;;;;;;;;11.67;46.22;98185.30;108024;1279;22519;-73
2022/04/19 10:58:49;;;;;;;;;;;;;;;11.67;45.52;98186.87;108008;1279;22564;-73
2022/04/19 11:01:30;;;;;;;;;;;;;;;11.69;45.79;98186.75;108021;1279;22519;-73
2022/04/19 11:03:57;;;;;;;;;;;;;;;11.79;45.95;98189.09;108351;1279;24347;-75
2022/04/19 11:06:36;;;;;;;;;;;;;;;11.92;45.46;98188.52;108034;1279;22544;-73
2022/04/19 11:09:06;;;;;;;;;;;;;;;11.89;45.21;98192.90;108056;1279;22530;-72
2022/04/19 11:11:45;;;;;;;;;;;;;;;11.96;44.97;98196.55;108091;1279;22572;-72
2022/04/19 11:14:15;;;;;;;;;;;;;;;11.86;44.88;98203.05;108034;1279;22639;-73
2022/04/19 11:16:43;;;;;;;;;;;;;;;11.68;44.84;98203.92;108053;1279;22563;-72
2022/04/19 11:19:17;;;;;;;;;;;;;;;11.39;44.91;98209.08;108039;1279;22539;-73
2022/04/19 11:21:59;;;;;;;;;;;;;;;11.11;45.71;98211.70;108195;1279;22607;-73
2022/04/19 11:24:45;;;;;;;;;;;;;;;10.86;46.19;98213.71;108014;1279;22523;-73
2022/04/19 11:27:11;;;;;;;;;;;;;;;10.59;46.79;98214.64;108049;1279;22533;-72
2022/04/19 11:29:48;;;;;;;;;;;;;;;10.45;47.19;98214.77;108037;1279;22583;-72
2022/04/19 11:32:23;;;;;;;;;;;;;;;10.53;47.75;98207.23;108061;1279;22521;-74
2022/04/19 11:34:56;;;;;;;;;;;;;;;10.48;48.12;98209.52;108059;1279;22577;-74
2022/04/19 11:37:24;;;;;;;;;;;;;;;10.64;47.92;98206.64;108058;1279;22515;-72
2022/04/19 11:48:31;;;;;;;;;;;;;;;11.03;46.50;98202.52;107367;1284;25415;-72
2022/04/19 11:51:07;;;;;;;;;;;;;;;11.17;46.79;98205.32;107784;1279;22585;-73
2022/04/19 11:53:35;;;;;;;;;;;;;;;11.36;46.11;98206.73;108019;1279;22553;-72
2022/04/19 11:56:03;;;;;;;;;;;;;;;11.43;45.96;98202.83;108043;1279;22650;-76
2022/04/19 11:58:33;;;;;;;;;;;;;;;11.62;46.21;98199.64;108063;1279;22536;-73
2022/04/19 12:01:03;;;;;;;;;;;;;;;11.80;45.20;98197.59;108030;1279;22715;-73
2022/04/19 12:03:32;;;;;;;;;;;;;;;11.80;44.59;98197.27;108055;1279;22514;-73
2022/04/19 12:06:08;;;;;;;;;;;;;;;11.84;44.06;98198.67;108030;1279;22534;-74
2022/04/19 12:08:40;;;;;;;;;;;;;;;11.74;42.71;98195.83;108064;1279;22598;-73
2022/04/19 12:11:08;;;;;;;;;;;;;;;11.67;42.24;98194.17;108068;1279;25315;-73
2022/04/19 12:13:36;;;;;;;;;;;;;;;11.80;43.15;98193.80;108038;1279;22534;-73
2022/04/19 12:16:03;;;;;;;;;;;;;;;12.01;42.81;98193.39;107988;1279;22533;-73
2022/04/19 12:18:32;;;;;;;;;;;;;;;12.04;42.79;98195.70;108088;1279;22519;-76
2022/04/19 12:20:59;;;;;;;;;;;;;;;12.24;42.34;98198.85;108032;1279;22522;-75
2022/04/19 12:23:26;;;;;;;;;;;;;;;12.14;42.16;98196.67;108068;1279;24226;-72
2022/04/19 12:25:57;;;;;;;;;;;;;;;12.15;42.81;98202.36;108067;1281;22577;-72
2022/04/19 12:28:33;;;;;;;;;;;;;;;12.15;42.37;98201.67;108039;1279;22607;-72
2022/04/19 12:31:00;;;;;;;;;;;;;;;12.14;42.07;98201.02;108003;1281;22560;-73
2022/04/19 12:33:27;;;;;;;;;;;;;;;12.08;42.01;98204.36;108052;1281;25282;-73
2022/04/19 12:35:54;;;;;;;;;;;;;;;12.27;41.78;98200.23;108248;1280;25421;-76
2022/04/19 12:38:28;;;;;;;;;;;;;;;12.38;42.02;98204.58;108054;1279;22539;-72
2022/04/19 12:40:55;;;;;;;;;;;;;;;12.54;41.03;98200.52;108028;1279;22586;-74
2022/04/19 12:43:42;;;;;;;;;;;;;;;12.37;41.64;98208.86;108006;1278;22561;-75
2022/04/19 12:46:09;;;;;;;;;;;;;;;12.01;42.98;98212.93;108023;1279;22540;-73
2022/04/19 12:48:35;;;;;;;;;;;;;;;11.87;43.18;98212.23;108068;1281;22539;-73
2022/04/19 12:51:03;;;;;;;;;;;;;;;11.64;44.18;98211.20;108068;1279;22699;-72
2022/04/19 12:53:33;;;;;;;;;;;;;;;11.53;44.50;98222.48;108041;1280;23537;-75
2022/04/19 12:59:05;;;;;;;;;;;;;;;11.24;44.17;98220.83;108051;1280;22729;-72
2022/04/19 13:01:32;;;;;;;;;;;;;;;10.92;45.00;98226.65;108024;1279;22537;-74
2022/04/19 13:03:59;;;;;;;;;;;;;;;10.94;45.38;98223.04;108047;1280;22705;-74
2022/04/19 13:14:50;;;;;;;;;;;;;;;10.95;45.45;98232.79;108074;1280;22834;-74
2022/04/19 13:17:18;;;;;;;;;;;;;;;11.01;44.82;98228.81;107988;1281;22606;-72
2022/04/19 13:19:45;;;;;;;;;;;;;;;10.93;44.80;98231.33;108017;1281;22550;-72
2022/04/19 13:22:13;;;;;;;;;;;;;;;10.89;44.59;98233.50;108031;1279;22553;-75
2022/04/19 13:24:41;;;;;;;;;;;;;;;10.84;44.25;98234.04;108082;1279;22674;-74
2022/04/19 13:27:10;;;;;;;;;;;;;;;10.75;44.19;98234.75;108007;1281;24429;-73
2022/04/19 13:29:38;;;;;;;;;;;;;;;10.57;45.18;98234.42;108006;1281;22550;-77
2022/04/19 13:32:06;;;;;;;;;;;;;;;10.47;45.83;98232.75;108038;1281;23410;-72
2022/04/19 13:34:34;;;;;;;;;;;;;;;10.65;46.03;98232.48;108065;1280;22527;-72
2022/04/19 13:37:02;;;;;;;;;;;;;;;10.90;45.98;98227.03;108066;1281;22546;-73
2022/04/19 13:39:29;;;;;;;;;;;;;;;11.13;44.92;98232.13;108062;1279;22509;-74
2022/04/19 13:41:56;;;;;;;;;;;;;;;11.13;44.83;98234.75;107994;1279;22622;-73